La Grande Rivière Airport
CYGL : now visible

Airfield :











YOU CAN JOIN US ON...

 
LOGIN :

Register | Disclaimer

   EN    FR    IT 

 









Legend :    VFR   Marginal VFR   IFR   Intensive IFR   Very Intensive IFR
Visi :
Ceiling :
>= 8 km
>= 3000ft
5 to 8 km
1000 to 3000 ft
1500m to 5 km
500 to 1000 ft
800 to 1500m
200 to 500 ft
< 800m
< 200 ft
Symbols :   Thunderstorms  Fog  Heavy snow  Heavy precipitations  Wind > 20 kt






- Airport Elevation : 639 ft
- IATA code : YGL


CYGL - La Grande Rivière

CURRENT METAR :
  • 041900Z 09011KT 030V100 15SM FEW060 22/08 A3012 RMK CU1 SLP206 DENSITY ALT 1400FT

EXPIRED METARs :
  • 041800Z 06011KT 040V120 15SM FEW060 21/08 A3012 RMK CU2 SLP207 DENSITY ALT 1300FT
  • 041700Z 09011G17KT 050V130 15SM FEW060 21/09 A3013 RMK CU2 SLP210 DENSITY ALT 1300FT
  • 041600Z 08010G16KT 15SM FEW060 20/09 A3014 RMK CU1 SLP213 DENSITY ALT 1200FT

TAF TAF CYGL
Valid from the 04 at 18:00 until the 05 at 18:00 UTC


041739Z 0418/0518 09010G20KT P6SM SCT060
BECMG 0422/0424 08007KT
FM050900 04008KT P6SM SCT060 BKN140
BECMG 0516/0518 05012G22KT RMK NXT FCST BY 050000Z
CZUL FIR / North America



MET'MAP, your aeronautical weather chart ! - Copyright ORBIFLY December 2007 - Disclaimer

ORBIFLY MET'MAP TEAM :

Programming & Development : Alexandra Zaïnal
Concept & original design : Baudouin d'Aumeries
Assistance for programming : Marc-Olivier Méhu
Technical & hardware support : Manuel Goepfert

Contact : metmap@orbifly.com




SOURCES & CREDITS :

   NOAA       Earth
Advisory